createdAt,value
2018-01-27T00:01:47.522Z,78.00
2018-01-27T00:04:16.672Z,78.00
2018-01-27T00:06:44.428Z,78.00
2018-01-27T00:09:12.203Z,77.90
2018-01-27T00:11:39.906Z,77.70
2018-01-27T00:14:08.634Z,77.70
2018-01-27T00:16:36.325Z,77.50
2018-01-27T00:19:04.265Z,78.10
2018-01-27T00:21:32.127Z,77.20
2018-01-27T00:23:59.893Z,77.40
2018-01-27T00:26:28.396Z,78.20
2018-01-27T00:28:56.844Z,77.10
2018-01-27T00:31:24.847Z,77.00
2018-01-27T00:33:52.550Z,77.00
2018-01-27T00:36:20.626Z,77.20
2018-01-27T00:38:48.522Z,77.40
2018-01-27T00:41:16.286Z,77.40
2018-01-27T00:43:43.932Z,77.50
2018-01-27T00:46:11.767Z,77.50
2018-01-27T00:48:39.574Z,77.20
2018-01-27T00:51:07.384Z,77.20
2018-01-27T00:53:35.881Z,77.10
2018-01-27T00:56:03.840Z,77.00
2018-01-27T00:58:32.406Z,77.20
2018-01-27T01:01:00.236Z,77.10
2018-01-27T01:03:28.119Z,77.20
2018-01-27T01:05:55.965Z,77.20
2018-01-27T01:08:23.664Z,77.40
2018-01-27T01:10:51.664Z,77.40
2018-01-27T01:13:19.668Z,77.50
2018-01-27T01:15:47.398Z,77.50
2018-01-27T01:18:17.798Z,77.40
2018-01-27T01:20:46.930Z,77.30
2018-01-27T01:23:14.817Z,77.30
2018-01-27T01:25:43.276Z,77.40
2018-01-27T01:28:11.451Z,77.40
2018-01-27T01:30:42.779Z,77.60
2018-01-27T01:33:11.246Z,77.70
2018-01-27T01:35:39.577Z,77.90
2018-01-27T01:38:07.473Z,77.80
2018-01-27T01:40:45.315Z,77.80
2018-01-27T01:43:18.877Z,77.80
2018-01-27T01:45:47.362Z,77.60
2018-01-27T01:48:16.402Z,77.30
2018-01-27T01:50:44.604Z,77.20
2018-01-27T01:53:12.962Z,77.30
2018-01-27T01:55:43.409Z,77.30
2018-01-27T01:58:11.082Z,77.40
2018-01-27T02:00:39.059Z,77.40
2018-01-27T02:03:07.703Z,77.50
2018-01-27T02:05:35.578Z,77.50
2018-01-27T02:08:04.355Z,77.40
2018-01-27T02:10:32.421Z,77.30
2018-01-27T02:13:00.295Z,77.30
2018-01-27T02:15:28.056Z,77.50
2018-01-27T02:17:56.437Z,77.60
2018-01-27T02:20:24.409Z,77.60
2018-01-27T02:22:52.374Z,77.50
2018-01-27T02:25:20.207Z,77.50
2018-01-27T02:27:48.839Z,77.40
2018-01-27T02:30:17.241Z,77.50
2018-01-27T02:32:45.882Z,77.30
2018-01-27T02:35:13.750Z,77.20
2018-01-27T02:37:42.147Z,77.30
2018-01-27T02:40:10.213Z,77.00
2018-01-27T02:42:38.089Z,77.10
2018-01-27T02:45:06.055Z,76.90
2018-01-27T02:47:34.504Z,76.90
2018-01-27T02:50:02.228Z,76.90
2018-01-27T02:52:30.091Z,76.90
2018-01-27T02:54:58.620Z,76.60
2018-01-27T02:57:26.301Z,76.60
2018-01-27T02:59:54.146Z,76.70
2018-01-27T03:02:22.022Z,76.90
2018-01-27T03:04:49.812Z,77.00
2018-01-27T03:07:19.253Z,76.90
2018-01-27T03:09:47.047Z,76.90
2018-01-27T03:12:14.807Z,76.90
2018-01-27T03:14:43.228Z,76.90
2018-01-27T03:17:11.899Z,77.20
2018-01-27T03:19:39.742Z,77.10
2018-01-27T03:22:07.455Z,77.30
2018-01-27T03:24:35.861Z,77.40
2018-01-27T03:27:03.895Z,77.40
2018-01-27T03:29:32.435Z,77.30
2018-01-27T03:32:00.657Z,77.30
2018-01-27T03:34:28.338Z,77.30
2018-01-27T03:36:56.144Z,77.50
2018-01-27T03:39:24.018Z,77.60
2018-01-27T03:41:52.534Z,77.20
2018-01-27T03:44:20.256Z,77.20
2018-01-27T03:46:48.023Z,76.80
2018-01-27T03:49:15.886Z,76.70
2018-01-27T03:51:43.575Z,76.80
2018-01-27T03:54:12.023Z,76.90
2018-01-27T03:56:39.895Z,76.90
2018-01-27T03:59:08.391Z,77.10
2018-01-27T04:01:37.446Z,76.90
2018-01-27T04:04:06.089Z,77.60
2018-01-27T04:06:34.504Z,76.80
2018-01-27T04:09:02.872Z,76.80
2018-01-27T04:11:30.905Z,76.80
2018-01-27T04:13:59.319Z,76.70
2018-01-27T04:16:27.573Z,76.70
2018-01-27T04:18:55.420Z,76.60
2018-01-27T04:21:24.139Z,76.80
2018-01-27T04:23:52.372Z,76.80
2018-01-27T04:26:20.120Z,76.80
2018-01-27T04:28:49.400Z,76.60
2018-01-27T04:31:17.160Z,76.50
2018-01-27T04:33:45.030Z,76.80
2018-01-27T04:36:12.934Z,76.70
2018-01-27T04:38:41.910Z,76.70
2018-01-27T04:41:09.583Z,76.70
2018-01-27T04:43:37.252Z,76.90
2018-01-27T04:46:06.547Z,76.50
2018-01-27T04:48:34.190Z,76.50
2018-01-27T04:51:01.881Z,76.50
2018-01-27T04:53:33.331Z,76.80
2018-01-27T04:56:01.805Z,77.00
2018-01-27T04:58:30.711Z,77.00
2018-01-27T05:00:58.514Z,77.00
2018-01-27T05:03:26.543Z,77.20
2018-01-27T05:05:54.383Z,77.10
2018-01-27T05:08:22.217Z,77.20
2018-01-27T05:10:50.080Z,78.00
2018-01-27T05:13:17.916Z,77.40
2018-01-27T05:15:45.709Z,77.40
2018-01-27T05:18:13.415Z,77.70
2018-01-27T05:20:42.223Z,77.70
2018-01-27T05:23:10.024Z,77.60
2018-01-27T05:25:37.890Z,77.70
2018-01-27T05:28:05.753Z,77.50
2018-01-27T05:30:33.631Z,77.10
2018-01-27T05:33:01.383Z,77.40
2018-01-27T05:35:29.253Z,76.80
2018-01-27T05:37:57.156Z,76.90
2018-01-27T05:40:25.702Z,76.90
2018-01-27T05:42:53.491Z,76.90
2018-01-27T05:45:21.254Z,76.90
2018-01-27T05:47:48.890Z,77.10
2018-01-27T05:50:16.731Z,77.10
2018-01-27T05:52:44.415Z,77.20
2018-01-27T05:55:12.105Z,77.20
2018-01-27T05:57:40.656Z,77.30
2018-01-27T06:00:08.401Z,77.30
2018-01-27T06:02:36.491Z,77.40
2018-01-27T06:05:04.357Z,77.20
2018-01-27T06:07:32.046Z,77.10
2018-01-27T06:09:59.884Z,77.00
2018-01-27T06:12:27.680Z,77.10
2018-01-27T06:14:55.512Z,76.60
2018-01-27T06:17:23.276Z,76.80
2018-01-27T06:19:50.967Z,76.40
2018-01-27T06:22:18.617Z,76.50
2018-01-27T06:24:46.667Z,76.80
2018-01-27T06:27:15.034Z,76.40
2018-01-27T06:29:42.808Z,76.00
2018-01-27T06:32:10.572Z,76.20
2018-01-27T06:34:38.262Z,76.30
2018-01-27T06:37:06.031Z,76.00
2018-01-27T06:39:33.866Z,76.00
2018-01-27T06:42:01.731Z,76.00
2018-01-27T06:44:29.447Z,76.00
2018-01-27T06:46:57.886Z,76.10
2018-01-27T06:49:25.577Z,75.80
2018-01-27T06:51:54.221Z,75.90
2018-01-27T06:54:21.865Z,75.90
2018-01-27T06:56:49.527Z,75.60
2018-01-27T06:59:18.021Z,75.40
2018-01-27T07:01:45.788Z,75.00
2018-01-27T07:04:14.217Z,74.70
2018-01-27T07:06:43.583Z,75.00
2018-01-27T07:09:11.938Z,75.00
2018-01-27T07:11:39.701Z,75.00
2018-01-27T07:14:08.181Z,74.90
2018-01-27T07:16:35.946Z,74.70
2018-01-27T07:19:04.530Z,74.80
2018-01-27T07:21:32.224Z,75.00
2018-01-27T07:24:00.059Z,75.10
2018-01-27T07:26:28.562Z,75.20
2018-01-27T07:28:56.225Z,75.30
2018-01-27T07:31:24.633Z,75.30
2018-01-27T07:33:53.447Z,75.50
2018-01-27T07:36:21.870Z,75.50
2018-01-27T07:38:50.527Z,75.40
2018-01-27T07:41:20.480Z,75.80
2018-01-27T07:43:48.310Z,75.70
2018-01-27T07:46:15.997Z,75.50
2018-01-27T07:48:44.747Z,75.00
2018-01-27T07:51:12.682Z,75.30
2018-01-27T07:53:40.485Z,75.20
2018-01-27T07:56:08.707Z,74.90
2018-01-27T07:58:37.528Z,74.00
2018-01-27T08:01:05.622Z,73.90
2018-01-27T08:03:33.866Z,73.70
2018-01-27T08:06:01.505Z,73.90
2018-01-27T08:08:29.633Z,72.80
2018-01-27T08:10:57.396Z,73.00
2018-01-27T08:13:25.104Z,72.00
2018-01-27T08:15:54.345Z,71.30
2018-01-27T08:18:22.041Z,71.30
2018-01-27T08:20:49.827Z,71.60
2018-01-27T08:23:18.357Z,72.10
2018-01-27T08:25:46.150Z,72.10
2018-01-27T08:28:13.988Z,71.70
2018-01-27T08:30:41.731Z,70.90
2018-01-27T08:33:10.030Z,70.50
2018-01-27T08:35:38.506Z,69.80
2018-01-27T08:38:06.948Z,68.80
2018-01-27T08:40:34.702Z,68.20
2018-01-27T08:43:03.332Z,67.80
2018-01-27T08:45:31.117Z,67.80
2018-01-27T08:47:58.792Z,67.40
2018-01-27T08:50:26.505Z,66.90
2018-01-27T08:52:54.197Z,67.20
2018-01-27T08:55:22.194Z,67.10
2018-01-27T08:57:51.726Z,66.90
2018-01-27T09:00:19.417Z,66.90
2018-01-27T09:02:47.185Z,66.50
2018-01-27T09:05:15.762Z,66.60
2018-01-27T09:07:43.400Z,66.60
2018-01-27T09:10:11.494Z,65.90
2018-01-27T09:12:39.257Z,66.20
2018-01-27T09:15:06.906Z,66.00
2018-01-27T09:17:34.681Z,65.20
2018-01-27T09:20:02.570Z,64.80
2018-01-27T09:22:30.414Z,64.10
2018-01-27T09:24:58.177Z,64.00
2018-01-27T09:27:25.845Z,64.50
2018-01-27T09:29:53.495Z,64.20
2018-01-27T09:32:21.737Z,64.20
2018-01-27T09:34:50.294Z,63.10
2018-01-27T09:37:18.773Z,63.20
2018-01-27T09:39:46.602Z,63.20
2018-01-27T09:42:15.220Z,62.90
2018-01-27T09:44:44.401Z,62.40
2018-01-27T09:47:12.062Z,62.40
2018-01-27T09:49:39.829Z,62.40
2018-01-27T09:52:08.186Z,61.90
2018-01-27T09:54:35.997Z,61.80
2018-01-27T09:57:04.478Z,61.80
2018-01-27T09:59:33.113Z,61.80
2018-01-27T10:02:00.805Z,61.70
2018-01-27T10:04:28.570Z,61.50
2018-01-27T10:06:57.075Z,61.20
2018-01-27T10:09:25.536Z,60.40
2018-01-27T10:11:54.712Z,60.70
2018-01-27T10:14:22.366Z,60.70
2018-01-27T10:16:50.069Z,60.20
2018-01-27T10:19:18.529Z,59.90
2018-01-27T10:21:47.842Z,60.80
2018-01-27T10:24:17.100Z,60.90
2018-01-27T10:26:44.775Z,60.90
2018-01-27T10:29:13.451Z,61.70
2018-01-27T10:31:41.207Z,61.70
2018-01-27T10:34:09.014Z,62.10
2018-01-27T10:36:37.444Z,60.80
2018-01-27T10:39:05.329Z,60.80
2018-01-27T10:41:33.178Z,60.70
2018-01-27T10:44:00.840Z,60.10
2018-01-27T10:46:28.711Z,59.90
2018-01-27T10:48:56.566Z,58.90
2018-01-27T10:51:24.334Z,59.60
2018-01-27T10:53:52.201Z,60.00
2018-01-27T10:56:20.118Z,60.20
2018-01-27T10:58:48.534Z,58.90
2018-01-27T11:01:16.243Z,58.90
2018-01-27T11:03:44.074Z,59.00
2018-01-27T11:06:11.942Z,59.40
2018-01-27T11:08:39.702Z,59.50
2018-01-27T11:11:07.397Z,59.30
2018-01-27T11:13:35.232Z,59.80
2018-01-27T11:16:04.048Z,60.50
2018-01-27T11:18:32.324Z,60.60
2018-01-27T11:21:00.496Z,60.80
2018-01-27T11:23:28.183Z,61.30
2018-01-27T11:25:57.663Z,61.20
2018-01-27T11:28:25.490Z,61.10
2018-01-27T11:30:53.505Z,61.20
2018-01-27T11:33:22.049Z,61.80
2018-01-27T11:35:50.979Z,61.80
2018-01-27T11:38:19.417Z,62.00
2018-01-27T11:40:47.098Z,62.00
2018-01-27T11:43:14.843Z,61.30
2018-01-27T11:45:42.857Z,61.80
2018-01-27T11:48:11.992Z,60.80
2018-01-27T11:50:39.674Z,60.90
2018-01-27T11:53:07.317Z,61.40
2018-01-27T11:55:35.022Z,61.00
2018-01-27T11:58:02.808Z,61.30
2018-01-27T12:00:30.478Z,61.60
2018-01-27T12:02:59.019Z,61.50
2018-01-27T12:05:27.022Z,61.20
2018-01-27T12:07:55.652Z,61.30
2018-01-27T12:10:23.515Z,61.30
2018-01-27T12:12:51.337Z,61.10
2018-01-27T12:15:19.874Z,60.90
2018-01-27T12:17:47.730Z,60.90
2018-01-27T12:20:15.448Z,60.50
2018-01-27T12:22:43.107Z,60.70
2018-01-27T12:25:11.546Z,61.40
2018-01-27T12:27:39.594Z,61.40
2018-01-27T12:30:08.563Z,60.80
2018-01-27T12:32:36.356Z,60.80
2018-01-27T12:35:04.029Z,61.30
2018-01-27T12:37:31.708Z,60.90
2018-01-27T12:39:59.411Z,60.30
2018-01-27T12:42:29.152Z,60.50
2018-01-27T12:44:56.848Z,60.60
2018-01-27T12:47:24.577Z,61.00
2018-01-27T12:49:52.441Z,60.70
2018-01-27T12:52:20.096Z,60.70
2018-01-27T12:54:47.793Z,60.80
2018-01-27T12:57:15.500Z,60.60
2018-01-27T12:59:43.182Z,60.80
2018-01-27T13:02:10.877Z,60.70
2018-01-27T13:04:38.567Z,60.90
2018-01-27T13:07:08.407Z,60.40
2018-01-27T13:09:36.097Z,60.40
2018-01-27T13:12:03.766Z,60.30
2018-01-27T13:14:32.211Z,59.50
2018-01-27T13:16:59.905Z,59.80
2018-01-27T13:19:27.573Z,59.40
2018-01-27T13:21:55.412Z,58.80
2018-01-27T13:24:23.280Z,58.60
2018-01-27T13:26:51.001Z,59.00
2018-01-27T13:29:18.800Z,58.90
2018-01-27T13:31:46.576Z,59.20
2018-01-27T13:34:14.225Z,58.80
2018-01-27T13:36:41.898Z,58.00
2018-01-27T13:39:09.659Z,57.80
2018-01-27T13:41:37.464Z,57.40
2018-01-27T13:44:06.112Z,56.40
2018-01-27T13:46:34.618Z,56.40
2018-01-27T13:49:03.070Z,55.80
2018-01-27T13:51:30.832Z,55.10
2018-01-27T13:53:58.824Z,54.00
2018-01-27T13:56:27.092Z,53.20
2018-01-27T13:58:54.775Z,51.80
2018-01-27T14:01:23.263Z,47.60
2018-01-27T14:03:51.745Z,46.60
2018-01-27T14:06:20.221Z,46.10
2018-01-27T14:08:49.358Z,45.00
2018-01-27T14:11:17.165Z,44.90
2018-01-27T14:13:44.995Z,44.00
2018-01-27T14:16:12.673Z,44.10
2018-01-27T14:18:41.951Z,43.50
2018-01-27T14:21:09.670Z,43.40
2018-01-27T14:23:37.973Z,44.00
2018-01-27T14:26:06.479Z,44.90
2018-01-27T14:28:34.242Z,48.20
2018-01-27T14:31:02.031Z,49.80
2018-01-27T14:33:29.766Z,51.00
2018-01-27T14:35:57.571Z,52.40
2018-01-27T14:38:26.017Z,54.40
2018-01-27T14:40:53.810Z,54.40
2018-01-27T14:43:22.433Z,54.90
2018-01-27T14:45:50.433Z,55.50
2018-01-27T14:48:18.160Z,55.50
2018-01-27T14:50:45.966Z,55.70
2018-01-27T14:53:14.331Z,56.00
2018-01-27T14:55:42.771Z,56.00
2018-01-27T14:58:11.306Z,56.50
2018-01-27T15:00:39.300Z,56.50
2018-01-27T15:03:07.130Z,56.40
2018-01-27T15:05:34.910Z,56.90
2018-01-27T15:08:02.803Z,56.90
2018-01-27T15:10:31.382Z,58.20
2018-01-27T15:13:00.220Z,58.70
2018-01-27T15:15:28.093Z,58.70
2018-01-27T15:17:56.062Z,59.00
2018-01-27T15:20:23.760Z,59.00
2018-01-27T15:22:51.482Z,59.30
2018-01-27T15:25:19.303Z,59.20
2018-01-27T15:27:47.711Z,59.60
2018-01-27T15:30:16.037Z,59.50
2018-01-27T15:32:43.997Z,59.90
2018-01-27T15:35:11.838Z,61.00
2018-01-27T15:37:39.583Z,60.40
2018-01-27T15:40:07.260Z,60.60
2018-01-27T15:42:35.126Z,60.70
2018-01-27T15:45:02.891Z,60.90
2018-01-27T15:47:31.453Z,61.10
2018-01-27T15:49:59.939Z,61.50
2018-01-27T15:52:28.302Z,61.50
2018-01-27T15:54:56.198Z,61.30
2018-01-27T15:57:24.781Z,61.30
2018-01-27T15:59:52.548Z,61.90
2018-01-27T16:02:20.426Z,61.90
2018-01-27T16:04:48.172Z,62.00
2018-01-27T16:07:16.198Z,61.90
2018-01-27T16:09:44.621Z,62.10
2018-01-27T16:12:12.261Z,62.10
2018-01-27T16:14:40.045Z,62.50
2018-01-27T16:17:07.806Z,62.60
2018-01-27T16:19:35.570Z,63.10
2018-01-27T16:22:03.336Z,63.10
2018-01-27T16:24:31.716Z,63.30
2018-01-27T16:26:59.584Z,63.50
2018-01-27T16:29:27.445Z,63.60
2018-01-27T16:31:55.206Z,63.70
2018-01-27T16:34:23.083Z,63.80
2018-01-27T16:36:50.785Z,64.10
2018-01-27T16:39:19.241Z,64.20
2018-01-27T16:41:46.942Z,64.20
2018-01-27T16:44:14.697Z,64.10
2018-01-27T16:46:43.450Z,64.20
2018-01-27T16:49:11.182Z,64.20
2018-01-27T16:51:38.824Z,64.20
2018-01-27T16:54:07.514Z,64.50
2018-01-27T16:56:35.405Z,64.60
2018-01-27T16:59:03.889Z,65.10
2018-01-27T17:01:32.139Z,65.00
2018-01-27T17:03:59.935Z,65.00
2018-01-27T17:06:28.403Z,65.00
2018-01-27T17:08:56.207Z,64.90
2018-01-27T17:11:24.751Z,65.20
2018-01-27T17:13:54.214Z,65.20
2018-01-27T17:16:22.165Z,65.10
2018-01-27T17:18:50.756Z,65.20
2018-01-27T17:21:18.568Z,65.20
2018-01-27T17:23:46.217Z,65.10
2018-01-27T17:26:13.894Z,65.20
2018-01-27T17:28:41.615Z,65.10
2018-01-27T17:31:09.699Z,65.60
2018-01-27T17:33:37.600Z,65.50
2018-01-27T17:36:05.485Z,65.90
2018-01-27T17:38:33.215Z,65.90
2018-01-27T17:41:00.853Z,65.90
2018-01-27T17:43:28.562Z,65.80
2018-01-27T17:45:56.558Z,66.00
2018-01-27T17:48:24.252Z,66.20
2018-01-27T17:50:52.030Z,66.40
2018-01-27T17:53:20.582Z,66.60
2018-01-27T17:55:48.713Z,66.80
2018-01-27T17:58:17.139Z,67.20
2018-01-27T18:00:45.185Z,67.20
2018-01-27T18:03:13.947Z,67.30
2018-01-27T18:05:42.557Z,67.50
2018-01-27T18:08:11.189Z,67.60
2018-01-27T18:10:39.208Z,67.70
2018-01-27T18:13:07.748Z,67.60
2018-01-27T18:15:35.499Z,67.60
2018-01-27T18:18:03.164Z,67.60
2018-01-27T18:20:30.925Z,67.80
2018-01-27T18:22:58.795Z,67.90
2018-01-27T18:25:26.658Z,67.90
2018-01-27T18:27:54.344Z,67.60
2018-01-27T18:30:22.900Z,67.60
2018-01-27T18:32:50.708Z,67.70
2018-01-27T18:35:19.134Z,68.10
2018-01-27T18:37:47.010Z,68.10
2018-01-27T18:40:14.715Z,68.00
2018-01-27T18:42:42.393Z,68.10
2018-01-27T18:45:10.161Z,68.20
2018-01-27T18:47:38.486Z,68.40
2018-01-27T18:50:06.849Z,68.30
2018-01-27T18:52:35.085Z,68.70
2018-01-27T18:55:02.889Z,68.70
2018-01-27T18:57:30.589Z,68.70
2018-01-27T18:59:59.071Z,69.30
2018-01-27T19:02:27.821Z,69.40
2018-01-27T19:04:55.483Z,69.40
2018-01-27T19:07:23.138Z,69.50
2018-01-27T19:09:51.025Z,69.50
2018-01-27T19:12:19.245Z,69.60
2018-01-27T19:14:46.990Z,69.40
2018-01-27T19:17:15.588Z,69.80
2018-01-27T19:19:43.390Z,69.80
2018-01-27T19:22:11.291Z,70.00
2018-01-27T19:24:39.139Z,70.00
2018-01-27T19:27:06.986Z,70.00
2018-01-27T19:29:34.852Z,70.20
2018-01-27T19:32:02.719Z,70.30
2018-01-27T19:34:31.337Z,70.70
2018-01-27T19:36:59.098Z,70.60
2018-01-27T19:39:27.555Z,70.60
2018-01-27T19:41:55.521Z,70.60
2018-01-27T19:44:24.198Z,71.20
2018-01-27T19:46:51.841Z,71.10
2018-01-27T19:49:22.372Z,71.10
2018-01-27T19:51:50.254Z,71.10
2018-01-27T19:54:17.933Z,71.20
2018-01-27T19:56:45.726Z,71.20
2018-01-27T19:59:15.080Z,71.70
2018-01-27T20:01:42.727Z,71.60
2018-01-27T20:04:10.507Z,71.40
2018-01-27T20:06:38.181Z,71.70
2018-01-27T20:09:06.165Z,71.70
2018-01-27T20:11:34.612Z,71.80
2018-01-27T20:14:02.318Z,72.10
2018-01-27T20:16:31.071Z,72.00
2018-01-27T20:18:58.930Z,72.00
2018-01-27T20:21:26.791Z,72.10
2018-01-27T20:23:54.566Z,72.30
2018-01-27T20:26:22.247Z,72.20
2018-01-27T20:28:49.984Z,72.40
2018-01-27T20:31:17.676Z,72.40
2018-01-27T20:33:45.540Z,72.50
2018-01-27T20:36:14.034Z,72.80
2018-01-27T20:38:42.577Z,72.90
2018-01-27T20:41:10.340Z,72.80
2018-01-27T20:43:38.044Z,73.10
2018-01-27T20:46:06.482Z,73.20
2018-01-27T20:48:34.194Z,73.30
2018-01-27T20:51:02.638Z,73.50
2018-01-27T20:53:30.334Z,73.50
2018-01-27T20:55:58.829Z,73.50
2018-01-27T20:58:26.639Z,73.50
2018-01-27T21:00:54.755Z,73.70
2018-01-27T21:03:22.561Z,73.60
2018-01-27T21:05:50.425Z,73.40
2018-01-27T21:08:18.190Z,73.50
2018-01-27T21:10:46.055Z,73.50
2018-01-27T21:13:13.922Z,73.60
2018-01-27T21:15:41.789Z,73.70
2018-01-27T21:18:10.601Z,73.70
2018-01-27T21:20:39.286Z,74.00
2018-01-27T21:23:07.225Z,73.70
2018-01-27T21:25:34.989Z,73.90
2018-01-27T21:28:02.862Z,74.00
2018-01-27T21:30:30.750Z,74.10
2018-01-27T21:32:58.587Z,74.10
2018-01-27T21:35:26.350Z,74.00
2018-01-27T21:37:54.117Z,74.10
2018-01-27T21:40:22.188Z,74.00
2018-01-27T21:42:49.932Z,74.10
2018-01-27T21:45:17.714Z,74.00
2018-01-27T21:47:46.087Z,74.00
2018-01-27T21:50:14.246Z,73.90
2018-01-27T21:52:42.025Z,73.80
2018-01-27T21:55:09.722Z,74.10
2018-01-27T21:57:37.495Z,74.00
2018-01-27T22:00:06.031Z,73.70
2018-01-27T22:02:33.799Z,73.60
2018-01-27T22:05:01.558Z,73.30
2018-01-27T22:07:29.271Z,73.30
2018-01-27T22:09:58.057Z,73.10
2018-01-27T22:12:27.644Z,72.80
2018-01-27T22:14:55.477Z,72.80
2018-01-27T22:17:23.133Z,72.80
2018-01-27T22:19:50.909Z,72.60
2018-01-27T22:22:18.666Z,72.30
2018-01-27T22:24:46.430Z,72.10
2018-01-27T22:27:14.805Z,71.80
2018-01-27T22:29:42.625Z,71.80
2018-01-27T22:32:11.712Z,71.80
2018-01-27T22:34:40.118Z,71.70
2018-01-27T22:37:07.909Z,71.70
2018-01-27T22:39:35.565Z,71.70
2018-01-27T22:42:03.233Z,71.50
2018-01-27T22:44:31.096Z,71.50
2018-01-27T22:46:58.904Z,71.30
2018-01-27T22:49:27.544Z,71.30
2018-01-27T22:51:55.427Z,71.20
2018-01-27T22:54:23.106Z,71.40
2018-01-27T22:56:50.870Z,71.20
2018-01-27T22:59:19.519Z,71.20
2018-01-27T23:01:47.292Z,71.00
2018-01-27T23:04:15.147Z,70.90
2018-01-27T23:06:43.243Z,70.80
2018-01-27T23:09:10.983Z,70.40
2018-01-27T23:11:38.749Z,70.30
2018-01-27T23:14:06.611Z,70.30
2018-01-27T23:16:34.844Z,70.10
2018-01-27T23:19:03.409Z,70.00
2018-01-27T23:21:31.335Z,70.00
2018-01-27T23:23:59.202Z,69.90
2018-01-27T23:26:28.770Z,69.90
2018-01-27T23:28:56.522Z,69.90
2018-01-27T23:31:24.982Z,69.70
2018-01-27T23:33:54.505Z,69.20
2018-01-27T23:36:23.035Z,69.60
2018-01-27T23:38:50.801Z,69.60
2018-01-27T23:41:19.376Z,69.20
2018-01-27T23:43:47.144Z,69.20
2018-01-27T23:46:15.456Z,69.30
2018-01-27T23:48:44.109Z,68.80
2018-01-27T23:51:11.900Z,68.80
2018-01-27T23:53:39.776Z,68.70
2018-01-27T23:56:08.248Z,68.60
2018-01-27T23:58:37.107Z,68.40
